sensor_id;sensor_type;location;lat;lon;timestamp;P1;durP1;ratioP1;P2;durP2;ratioP2
8050;SDS011;4068;42.158;24.732;2023-10-13T00:00:29;13.02;;;7.47;;
8050;SDS011;4068;42.158;24.732;2023-10-13T00:02:58;14.80;;;7.82;;
8050;SDS011;4068;42.158;24.732;2023-10-13T00:05:29;11.57;;;7.53;;
8050;SDS011;4068;42.158;24.732;2023-10-13T00:07:59;12.00;;;7.20;;
8050;SDS011;4068;42.158;24.732;2023-10-13T00:10:26;10.02;;;7.10;;
8050;SDS011;4068;42.158;24.732;2023-10-13T00:12:53;11.88;;;7.53;;
8050;SDS011;4068;42.158;24.732;2023-10-13T00:15:18;11.70;;;7.03;;
8050;SDS011;4068;42.158;24.732;2023-10-13T00:17:53;11.10;;;6.72;;
8050;SDS011;4068;42.158;24.732;2023-10-13T00:20:20;10.05;;;7.47;;
8050;SDS011;4068;42.158;24.732;2023-10-13T00:23:03;10.30;;;7.40;;
8050;SDS011;4068;42.158;24.732;2023-10-13T00:25:28;10.25;;;7.43;;
8050;SDS011;4068;42.158;24.732;2023-10-13T00:27:59;12.00;;;7.82;;
8050;SDS011;4068;42.158;24.732;2023-10-13T00:30:26;14.75;;;7.55;;
8050;SDS011;4068;42.158;24.732;2023-10-13T00:32:57;11.52;;;8.10;;
8050;SDS011;4068;42.158;24.732;2023-10-13T00:35:23;12.63;;;7.43;;
8050;SDS011;4068;42.158;24.732;2023-10-13T00:38:01;11.68;;;7.43;;
8050;SDS011;4068;42.158;24.732;2023-10-13T00:40:39;10.57;;;7.32;;
8050;SDS011;4068;42.158;24.732;2023-10-13T00:43:05;9.57;;;7.25;;
8050;SDS011;4068;42.158;24.732;2023-10-13T00:45:43;13.85;;;7.13;;
8050;SDS011;4068;42.158;24.732;2023-10-13T00:48:31;16.10;;;8.10;;
8050;SDS011;4068;42.158;24.732;2023-10-13T00:50:59;14.77;;;7.40;;
8050;SDS011;4068;42.158;24.732;2023-10-13T00:53:28;15.57;;;7.68;;
8050;SDS011;4068;42.158;24.732;2023-10-13T00:55:58;13.02;;;7.70;;
8050;SDS011;4068;42.158;24.732;2023-10-13T00:58:33;12.00;;;7.80;;
8050;SDS011;4068;42.158;24.732;2023-10-13T01:01:00;17.77;;;7.95;;
8050;SDS011;4068;42.158;24.732;2023-10-13T01:03:48;15.27;;;8.32;;
8050;SDS011;4068;42.158;24.732;2023-10-13T01:06:17;15.70;;;8.43;;
8050;SDS011;4068;42.158;24.732;2023-10-13T01:08:47;11.35;;;7.53;;
8050;SDS011;4068;42.158;24.732;2023-10-13T01:11:17;12.88;;;8.20;;
8050;SDS011;4068;42.158;24.732;2023-10-13T01:13:43;11.73;;;7.45;;
8050;SDS011;4068;42.158;24.732;2023-10-13T01:16:09;12.98;;;7.63;;
8050;SDS011;4068;42.158;24.732;2023-10-13T01:18:35;16.88;;;8.45;;
8050;SDS011;4068;42.158;24.732;2023-10-13T01:21:13;14.25;;;7.68;;
8050;SDS011;4068;42.158;24.732;2023-10-13T01:23:42;13.63;;;8.07;;
8050;SDS011;4068;42.158;24.732;2023-10-13T01:26:09;20.02;;;7.10;;
8050;SDS011;4068;42.158;24.732;2023-10-13T01:28:37;10.30;;;7.40;;
8050;SDS011;4068;42.158;24.732;2023-10-13T01:31:10;13.77;;;7.68;;
8050;SDS011;4068;42.158;24.732;2023-10-13T01:36:33;15.52;;;7.38;;
8050;SDS011;4068;42.158;24.732;2023-10-13T01:39:01;13.40;;;8.20;;
8050;SDS011;4068;42.158;24.732;2023-10-13T01:41:26;15.23;;;7.78;;
8050;SDS011;4068;42.158;24.732;2023-10-13T01:43:52;13.35;;;7.53;;
8050;SDS011;4068;42.158;24.732;2023-10-13T01:46:17;16.05;;;8.18;;
8050;SDS011;4068;42.158;24.732;2023-10-13T01:48:46;15.05;;;8.52;;
8050;SDS011;4068;42.158;24.732;2023-10-13T01:51:12;12.68;;;8.25;;
8050;SDS011;4068;42.158;24.732;2023-10-13T01:53:38;14.27;;;8.73;;
8050;SDS011;4068;42.158;24.732;2023-10-13T01:56:05;12.05;;;9.00;;
8050;SDS011;4068;42.158;24.732;2023-10-13T01:58:35;12.18;;;8.35;;
8050;SDS011;4068;42.158;24.732;2023-10-13T02:01:01;12.70;;;8.60;;
8050;SDS011;4068;42.158;24.732;2023-10-13T02:03:32;17.00;;;8.43;;
8050;SDS011;4068;42.158;24.732;2023-10-13T02:05:58;13.30;;;8.70;;
8050;SDS011;4068;42.158;24.732;2023-10-13T02:08:29;17.90;;;7.90;;
8050;SDS011;4068;42.158;24.732;2023-10-13T02:10:55;16.17;;;8.20;;
8050;SDS011;4068;42.158;24.732;2023-10-13T02:13:25;13.25;;;7.85;;
8050;SDS011;4068;42.158;24.732;2023-10-13T02:15:54;14.27;;;8.10;;
8050;SDS011;4068;42.158;24.732;2023-10-13T02:18:27;19.20;;;8.80;;
8050;SDS011;4068;42.158;24.732;2023-10-13T02:20:55;22.90;;;9.48;;
8050;SDS011;4068;42.158;24.732;2023-10-13T02:23:22;19.70;;;8.18;;
8050;SDS011;4068;42.158;24.732;2023-10-13T02:25:49;11.93;;;8.43;;
8050;SDS011;4068;42.158;24.732;2023-10-13T02:28:25;16.85;;;9.27;;
8050;SDS011;4068;42.158;24.732;2023-10-13T02:30:53;16.35;;;8.48;;
8050;SDS011;4068;42.158;24.732;2023-10-13T02:33:19;16.90;;;8.70;;
8050;SDS011;4068;42.158;24.732;2023-10-13T02:35:49;13.82;;;8.70;;
8050;SDS011;4068;42.158;24.732;2023-10-13T02:38:21;15.15;;;8.15;;
8050;SDS011;4068;42.158;24.732;2023-10-13T02:40:53;17.98;;;8.18;;
8050;SDS011;4068;42.158;24.732;2023-10-13T02:43:22;15.60;;;7.97;;
8050;SDS011;4068;42.158;24.732;2023-10-13T02:45:51;19.52;;;8.75;;
8050;SDS011;4068;42.158;24.732;2023-10-13T02:48:24;12.15;;;8.65;;
8050;SDS011;4068;42.158;24.732;2023-10-13T02:50:54;12.13;;;8.15;;
8050;SDS011;4068;42.158;24.732;2023-10-13T02:53:21;18.38;;;9.10;;
8050;SDS011;4068;42.158;24.732;2023-10-13T02:55:53;18.98;;;8.82;;
8050;SDS011;4068;42.158;24.732;2023-10-13T02:58:21;20.08;;;9.10;;
8050;SDS011;4068;42.158;24.732;2023-10-13T03:00:47;17.65;;;9.38;;
8050;SDS011;4068;42.158;24.732;2023-10-13T03:03:13;18.05;;;10.15;;
8050;SDS011;4068;42.158;24.732;2023-10-13T03:05:43;21.98;;;9.43;;
8050;SDS011;4068;42.158;24.732;2023-10-13T03:08:09;18.83;;;9.25;;
8050;SDS011;4068;42.158;24.732;2023-10-13T03:10:36;25.23;;;9.88;;
8050;SDS011;4068;42.158;24.732;2023-10-13T03:13:05;21.52;;;10.40;;
8050;SDS011;4068;42.158;24.732;2023-10-13T03:15:34;17.85;;;10.32;;
8050;SDS011;4068;42.158;24.732;2023-10-13T03:18:01;22.88;;;11.88;;
8050;SDS011;4068;42.158;24.732;2023-10-13T03:20:27;22.42;;;9.18;;
8050;SDS011;4068;42.158;24.732;2023-10-13T03:22:57;21.63;;;9.90;;
8050;SDS011;4068;42.158;24.732;2023-10-13T03:25:23;15.57;;;9.73;;
8050;SDS011;4068;42.158;24.732;2023-10-13T03:27:54;16.90;;;9.70;;
8050;SDS011;4068;42.158;24.732;2023-10-13T03:30:20;18.65;;;10.70;;
8050;SDS011;4068;42.158;24.732;2023-10-13T03:32:47;18.85;;;9.88;;
8050;SDS011;4068;42.158;24.732;2023-10-13T03:35:22;10.73;;;8.38;;
8050;SDS011;4068;42.158;24.732;2023-10-13T03:37:50;13.63;;;8.60;;
8050;SDS011;4068;42.158;24.732;2023-10-13T03:40:16;17.63;;;8.18;;
8050;SDS011;4068;42.158;24.732;2023-10-13T03:42:44;13.18;;;7.85;;
8050;SDS011;4068;42.158;24.732;2023-10-13T03:45:23;9.18;;;7.07;;
8050;SDS011;4068;42.158;24.732;2023-10-13T03:47:50;15.90;;;7.57;;
8050;SDS011;4068;42.158;24.732;2023-10-13T03:50:19;14.98;;;7.72;;
8050;SDS011;4068;42.158;24.732;2023-10-13T03:52:54;14.00;;;7.82;;
8050;SDS011;4068;42.158;24.732;2023-10-13T03:55:23;12.77;;;7.50;;
8050;SDS011;4068;42.158;24.732;2023-10-13T03:57:52;21.20;;;9.43;;
8050;SDS011;4068;42.158;24.732;2023-10-13T04:00:20;12.63;;;7.60;;
8050;SDS011;4068;42.158;24.732;2023-10-13T04:02:50;12.18;;;7.32;;
8050;SDS011;4068;42.158;24.732;2023-10-13T04:05:28;9.52;;;7.05;;
8050;SDS011;4068;42.158;24.732;2023-10-13T04:08:03;14.18;;;7.38;;
8050;SDS011;4068;42.158;24.732;2023-10-13T04:10:48;20.25;;;9.18;;
8050;SDS011;4068;42.158;24.732;2023-10-13T04:13:17;14.63;;;9.73;;
8050;SDS011;4068;42.158;24.732;2023-10-13T04:16:03;23.88;;;10.48;;
8050;SDS011;4068;42.158;24.732;2023-10-13T04:18:48;19.30;;;10.55;;
8050;SDS011;4068;42.158;24.732;2023-10-13T04:21:23;22.83;;;10.60;;
8050;SDS011;4068;42.158;24.732;2023-10-13T04:24:12;12.40;;;9.10;;
8050;SDS011;4068;42.158;24.732;2023-10-13T04:26:52;20.30;;;10.20;;
8050;SDS011;4068;42.158;24.732;2023-10-13T04:29:36;21.42;;;9.30;;
8050;SDS011;4068;42.158;24.732;2023-10-13T04:32:21;13.70;;;9.00;;
8050;SDS011;4068;42.158;24.732;2023-10-13T04:35:03;19.05;;;10.05;;
8050;SDS011;4068;42.158;24.732;2023-10-13T04:37:37;29.00;;;10.38;;
8050;SDS011;4068;42.158;24.732;2023-10-13T04:40:19;15.73;;;10.00;;
8050;SDS011;4068;42.158;24.732;2023-10-13T04:42:49;22.88;;;10.70;;
8050;SDS011;4068;42.158;24.732;2023-10-13T04:45:22;27.77;;;11.30;;
8050;SDS011;4068;42.158;24.732;2023-10-13T04:47:58;22.90;;;11.15;;
8050;SDS011;4068;42.158;24.732;2023-10-13T04:50:52;31.38;;;13.02;;
8050;SDS011;4068;42.158;24.732;2023-10-13T04:53:43;29.42;;;13.43;;
8050;SDS011;4068;42.158;24.732;2023-10-13T04:56:41;18.85;;;12.07;;
8050;SDS011;4068;42.158;24.732;2023-10-13T04:59:06;24.17;;;11.68;;
8050;SDS011;4068;42.158;24.732;2023-10-13T05:02:00;27.52;;;11.20;;
8050;SDS011;4068;42.158;24.732;2023-10-13T05:04:44;16.77;;;9.00;;
8050;SDS011;4068;42.158;24.732;2023-10-13T05:07:48;24.33;;;11.57;;
8050;SDS011;4068;42.158;24.732;2023-10-13T05:10:32;18.95;;;10.45;;
8050;SDS011;4068;42.158;24.732;2023-10-13T05:13:18;15.95;;;9.32;;
8050;SDS011;4068;42.158;24.732;2023-10-13T05:16:02;13.68;;;9.48;;
8050;SDS011;4068;42.158;24.732;2023-10-13T05:18:46;21.48;;;8.70;;
8050;SDS011;4068;42.158;24.732;2023-10-13T05:21:30;20.67;;;9.20;;
8050;SDS011;4068;42.158;24.732;2023-10-13T05:24:14;24.42;;;9.02;;
8050;SDS011;4068;42.158;24.732;2023-10-13T05:26:58;24.48;;;9.40;;
8050;SDS011;4068;42.158;24.732;2023-10-13T05:29:42;13.18;;;8.65;;
8050;SDS011;4068;42.158;24.732;2023-10-13T05:32:28;15.60;;;8.07;;
8050;SDS011;4068;42.158;24.732;2023-10-13T05:35:13;16.42;;;8.88;;
8050;SDS011;4068;42.158;24.732;2023-10-13T05:37:58;16.85;;;8.85;;
8050;SDS011;4068;42.158;24.732;2023-10-13T05:40:52;18.27;;;9.10;;
8050;SDS011;4068;42.158;24.732;2023-10-13T05:43:43;15.82;;;7.75;;
8050;SDS011;4068;42.158;24.732;2023-10-13T05:46:27;12.98;;;7.45;;
8050;SDS011;4068;42.158;24.732;2023-10-13T05:48:53;14.30;;;8.00;;
8050;SDS011;4068;42.158;24.732;2023-10-13T05:54:17;16.67;;;8.73;;
8050;SDS011;4068;42.158;24.732;2023-10-13T05:57:03;18.00;;;8.73;;
8050;SDS011;4068;42.158;24.732;2023-10-13T05:59:47;23.42;;;8.35;;
8050;SDS011;4068;42.158;24.732;2023-10-13T06:02:31;13.00;;;8.18;;
8050;SDS011;4068;42.158;24.732;2023-10-13T06:05:15;15.30;;;8.15;;
8050;SDS011;4068;42.158;24.732;2023-10-13T06:07:59;14.00;;;8.75;;
8050;SDS011;4068;42.158;24.732;2023-10-13T06:10:43;33.38;;;11.15;;
8050;SDS011;4068;42.158;24.732;2023-10-13T06:13:28;20.98;;;9.40;;
8050;SDS011;4068;42.158;24.732;2023-10-13T06:16:13;16.95;;;8.77;;
8050;SDS011;4068;42.158;24.732;2023-10-13T06:19:00;12.82;;;7.80;;
8050;SDS011;4068;42.158;24.732;2023-10-13T06:21:44;16.77;;;8.02;;
8050;SDS011;4068;42.158;24.732;2023-10-13T06:24:29;10.73;;;7.53;;
8050;SDS011;4068;42.158;24.732;2023-10-13T06:27:16;13.45;;;8.40;;
8050;SDS011;4068;42.158;24.732;2023-10-13T06:30:01;21.77;;;9.65;;
8050;SDS011;4068;42.158;24.732;2023-10-13T06:32:28;14.10;;;8.02;;
8050;SDS011;4068;42.158;24.732;2023-10-13T06:34:54;16.20;;;7.90;;
8050;SDS011;4068;42.158;24.732;2023-10-13T06:37:25;20.63;;;7.05;;
8050;SDS011;4068;42.158;24.732;2023-10-13T06:39:55;16.02;;;7.65;;
8050;SDS011;4068;42.158;24.732;2023-10-13T06:42:25;13.32;;;6.68;;
8050;SDS011;4068;42.158;24.732;2023-10-13T06:44:57;12.63;;;7.25;;
8050;SDS011;4068;42.158;24.732;2023-10-13T06:47:25;11.10;;;7.20;;
8050;SDS011;4068;42.158;24.732;2023-10-13T06:49:52;14.73;;;6.38;;
8050;SDS011;4068;42.158;24.732;2023-10-13T06:52:19;29.88;;;6.65;;
8050;SDS011;4068;42.158;24.732;2023-10-13T06:54:49;17.42;;;5.93;;
8050;SDS011;4068;42.158;24.732;2023-10-13T06:57:15;24.42;;;6.72;;
8050;SDS011;4068;42.158;24.732;2023-10-13T06:59:45;27.10;;;6.55;;
8050;SDS011;4068;42.158;24.732;2023-10-13T07:02:11;22.35;;;5.97;;
8050;SDS011;4068;42.158;24.732;2023-10-13T07:04:46;16.23;;;6.18;;
8050;SDS011;4068;42.158;24.732;2023-10-13T07:07:12;17.02;;;5.78;;
8050;SDS011;4068;42.158;24.732;2023-10-13T07:09:40;14.05;;;6.30;;
8050;SDS011;4068;42.158;24.732;2023-10-13T07:12:20;11.38;;;6.15;;
8050;SDS011;4068;42.158;24.732;2023-10-13T07:14:58;10.70;;;6.85;;
8050;SDS011;4068;42.158;24.732;2023-10-13T07:17:36;17.05;;;6.88;;
8050;SDS011;4068;42.158;24.732;2023-10-13T07:20:05;13.18;;;5.93;;
8050;SDS011;4068;42.158;24.732;2023-10-13T07:22:41;18.27;;;5.55;;
8050;SDS011;4068;42.158;24.732;2023-10-13T07:25:20;11.50;;;7.00;;
8050;SDS011;4068;42.158;24.732;2023-10-13T07:27:48;24.60;;;5.80;;
8050;SDS011;4068;42.158;24.732;2023-10-13T07:30:14;13.90;;;6.32;;
8050;SDS011;4068;42.158;24.732;2023-10-13T07:32:41;14.73;;;6.90;;
8050;SDS011;4068;42.158;24.732;2023-10-13T07:35:14;18.48;;;5.88;;
8050;SDS011;4068;42.158;24.732;2023-10-13T07:37:43;9.43;;;5.25;;
8050;SDS011;4068;42.158;24.732;2023-10-13T07:40:09;8.95;;;5.82;;
8050;SDS011;4068;42.158;24.732;2023-10-13T07:42:55;13.20;;;5.45;;
8050;SDS011;4068;42.158;24.732;2023-10-13T07:45:35;14.52;;;5.43;;
8050;SDS011;4068;42.158;24.732;2023-10-13T07:48:03;13.52;;;5.25;;
8050;SDS011;4068;42.158;24.732;2023-10-13T07:50:38;17.50;;;6.40;;
8050;SDS011;4068;42.158;24.732;2023-10-13T07:53:04;16.42;;;8.18;;
8050;SDS011;4068;42.158;24.732;2023-10-13T07:55:44;12.55;;;5.10;;
8050;SDS011;4068;42.158;24.732;2023-10-13T07:58:12;9.73;;;5.57;;
8050;SDS011;4068;42.158;24.732;2023-10-13T08:00:39;9.23;;;5.03;;
8050;SDS011;4068;42.158;24.732;2023-10-13T08:03:10;8.50;;;5.47;;
8050;SDS011;4068;42.158;24.732;2023-10-13T08:05:36;9.82;;;5.88;;
8050;SDS011;4068;42.158;24.732;2023-10-13T08:08:07;9.80;;;4.82;;
8050;SDS011;4068;42.158;24.732;2023-10-13T08:10:40;9.30;;;5.50;;
8050;SDS011;4068;42.158;24.732;2023-10-13T08:13:10;8.40;;;4.90;;
8050;SDS011;4068;42.158;24.732;2023-10-13T08:15:39;8.50;;;5.35;;
8050;SDS011;4068;42.158;24.732;2023-10-13T08:18:12;7.53;;;4.65;;
8050;SDS011;4068;42.158;24.732;2023-10-13T08:20:45;7.15;;;4.95;;
8050;SDS011;4068;42.158;24.732;2023-10-13T08:23:10;13.32;;;5.95;;
8050;SDS011;4068;42.158;24.732;2023-10-13T08:25:39;8.30;;;5.45;;
8050;SDS011;4068;42.158;24.732;2023-10-13T08:28:36;11.23;;;5.05;;
8050;SDS011;4068;42.158;24.732;2023-10-13T08:31:19;13.20;;;5.13;;
8050;SDS011;4068;42.158;24.732;2023-10-13T08:33:50;13.02;;;5.43;;
8050;SDS011;4068;42.158;24.732;2023-10-13T08:36:16;10.82;;;5.00;;
8050;SDS011;4068;42.158;24.732;2023-10-13T08:38:55;12.02;;;5.28;;
8050;SDS011;4068;42.158;24.732;2023-10-13T08:41:21;13.30;;;5.07;;
8050;SDS011;4068;42.158;24.732;2023-10-13T08:43:52;6.05;;;4.50;;
8050;SDS011;4068;42.158;24.732;2023-10-13T08:46:28;15.90;;;5.15;;
8050;SDS011;4068;42.158;24.732;2023-10-13T08:49:03;10.80;;;4.93;;
8050;SDS011;4068;42.158;24.732;2023-10-13T08:51:38;7.22;;;4.93;;
8050;SDS011;4068;42.158;24.732;2023-10-13T08:54:30;7.60;;;4.90;;
8050;SDS011;4068;42.158;24.732;2023-10-13T08:57:00;16.13;;;6.03;;
8050;SDS011;4068;42.158;24.732;2023-10-13T08:59:55;11.88;;;5.00;;
8050;SDS011;4068;42.158;24.732;2023-10-13T09:02:21;12.07;;;6.22;;
8050;SDS011;4068;42.158;24.732;2023-10-13T09:05:08;12.18;;;5.82;;
8050;SDS011;4068;42.158;24.732;2023-10-13T09:07:54;9.00;;;5.30;;
8050;SDS011;4068;42.158;24.732;2023-10-13T09:10:22;17.20;;;5.55;;
8050;SDS011;4068;42.158;24.732;2023-10-13T09:13:09;7.90;;;4.43;;
8050;SDS011;4068;42.158;24.732;2023-10-13T09:15:36;8.07;;;4.88;;
8050;SDS011;4068;42.158;24.732;2023-10-13T09:18:28;10.38;;;5.15;;
8050;SDS011;4068;42.158;24.732;2023-10-13T09:21:12;9.63;;;5.03;;
8050;SDS011;4068;42.158;24.732;2023-10-13T09:24:08;9.70;;;5.45;;
8050;SDS011;4068;42.158;24.732;2023-10-13T09:27:01;9.55;;;5.45;;
8050;SDS011;4068;42.158;24.732;2023-10-13T09:29:28;12.90;;;6.40;;
8050;SDS011;4068;42.158;24.732;2023-10-13T09:32:01;11.40;;;5.80;;
8050;SDS011;4068;42.158;24.732;2023-10-13T09:34:28;9.70;;;5.43;;
8050;SDS011;4068;42.158;24.732;2023-10-13T09:36:58;8.95;;;5.18;;
8050;SDS011;4068;42.158;24.732;2023-10-13T09:39:28;11.32;;;4.70;;
8050;SDS011;4068;42.158;24.732;2023-10-13T09:42:09;10.68;;;4.53;;
8050;SDS011;4068;42.158;24.732;2023-10-13T09:44:37;11.77;;;4.90;;
8050;SDS011;4068;42.158;24.732;2023-10-13T09:47:05;12.57;;;6.03;;
8050;SDS011;4068;42.158;24.732;2023-10-13T09:49:44;8.48;;;4.53;;
8050;SDS011;4068;42.158;24.732;2023-10-13T09:52:14;11.85;;;4.82;;
8050;SDS011;4068;42.158;24.732;2023-10-13T09:57:24;12.35;;;4.60;;
8050;SDS011;4068;42.158;24.732;2023-10-13T10:00:06;11.95;;;5.10;;
8050;SDS011;4068;42.158;24.732;2023-10-13T10:02:53;6.55;;;4.55;;
8050;SDS011;4068;42.158;24.732;2023-10-13T10:05:26;13.55;;;7.38;;
8050;SDS011;4068;42.158;24.732;2023-10-13T10:07:57;11.45;;;5.43;;
8050;SDS011;4068;42.158;24.732;2023-10-13T10:10:26;14.13;;;5.10;;
8050;SDS011;4068;42.158;24.732;2023-10-13T10:14:01;17.75;;;5.45;;
8050;SDS011;4068;42.158;24.732;2023-10-13T10:16:12;10.73;;;5.40;;
8050;SDS011;4068;42.158;24.732;2023-10-13T10:18:45;11.18;;;5.45;;
8050;SDS011;4068;42.158;24.732;2023-10-13T10:21:10;17.35;;;5.57;;
8050;SDS011;4068;42.158;24.732;2023-10-13T10:23:36;10.63;;;4.82;;
8050;SDS011;4068;42.158;24.732;2023-10-13T10:26:14;9.35;;;5.10;;
8050;SDS011;4068;42.158;24.732;2023-10-13T10:28:45;16.20;;;5.28;;
8050;SDS011;4068;42.158;24.732;2023-10-13T10:31:11;9.77;;;5.20;;
8050;SDS011;4068;42.158;24.732;2023-10-13T10:33:44;12.68;;;5.70;;
8050;SDS011;4068;42.158;24.732;2023-10-13T10:36:15;10.25;;;5.15;;
8050;SDS011;4068;42.158;24.732;2023-10-13T10:38:55;14.55;;;6.68;;
8050;SDS011;4068;42.158;24.732;2023-10-13T10:41:26;18.88;;;5.88;;
8050;SDS011;4068;42.158;24.732;2023-10-13T10:44:14;9.77;;;4.78;;
8050;SDS011;4068;42.158;24.732;2023-10-13T10:47:12;12.20;;;4.80;;
8050;SDS011;4068;42.158;24.732;2023-10-13T10:50:07;11.02;;;5.00;;
8050;SDS011;4068;42.158;24.732;2023-10-13T10:52:43;12.52;;;5.50;;
8050;SDS011;4068;42.158;24.732;2023-10-13T10:55:09;10.82;;;5.13;;
8050;SDS011;4068;42.158;24.732;2023-10-13T10:57:38;14.80;;;5.28;;
8050;SDS011;4068;42.158;24.732;2023-10-13T11:00:17;13.52;;;5.15;;
8050;SDS011;4068;42.158;24.732;2023-10-13T11:02:54;11.25;;;5.32;;
8050;SDS011;4068;42.158;24.732;2023-10-13T11:05:20;11.20;;;5.75;;
8050;SDS011;4068;42.158;24.732;2023-10-13T11:07:46;11.82;;;5.20;;
8050;SDS011;4068;42.158;24.732;2023-10-13T11:10:16;9.15;;;5.45;;
8050;SDS011;4068;42.158;24.732;2023-10-13T11:12:55;23.25;;;6.00;;
8050;SDS011;4068;42.158;24.732;2023-10-13T11:15:22;12.05;;;5.53;;
8050;SDS011;4068;42.158;24.732;2023-10-13T11:17:50;30.25;;;6.00;;
8050;SDS011;4068;42.158;24.732;2023-10-13T11:20:20;12.05;;;4.90;;
8050;SDS011;4068;42.158;24.732;2023-10-13T11:23:12;12.38;;;4.60;;
8050;SDS011;4068;42.158;24.732;2023-10-13T11:25:38;10.85;;;4.68;;
8050;SDS011;4068;42.158;24.732;2023-10-13T11:28:10;7.53;;;4.45;;
8050;SDS011;4068;42.158;24.732;2023-10-13T11:30:42;10.00;;;5.28;;
8050;SDS011;4068;42.158;24.732;2023-10-13T11:33:10;9.65;;;4.60;;
8050;SDS011;4068;42.158;24.732;2023-10-13T11:35:43;10.00;;;5.28;;
8050;SDS011;4068;42.158;24.732;2023-10-13T11:41:00;8.95;;;4.80;;
8050;SDS011;4068;42.158;24.732;2023-10-13T11:43:29;6.53;;;4.78;;
8050;SDS011;4068;42.158;24.732;2023-10-13T11:46:00;7.82;;;4.57;;
8050;SDS011;4068;42.158;24.732;2023-10-13T11:48:42;17.83;;;6.68;;
8050;SDS011;4068;42.158;24.732;2023-10-13T11:53:42;10.50;;;5.80;;
8050;SDS011;4068;42.158;24.732;2023-10-13T11:56:08;7.82;;;5.28;;
8050;SDS011;4068;42.158;24.732;2023-10-13T11:58:35;8.35;;;4.63;;
8050;SDS011;4068;42.158;24.732;2023-10-13T12:01:01;9.15;;;4.75;;
8050;SDS011;4068;42.158;24.732;2023-10-13T12:03:53;11.20;;;4.28;;
8050;SDS011;4068;42.158;24.732;2023-10-13T12:06:37;20.17;;;4.50;;
8050;SDS011;4068;42.158;24.732;2023-10-13T12:09:06;6.80;;;4.55;;
8050;SDS011;4068;42.158;24.732;2023-10-13T12:14:13;12.68;;;5.05;;
8050;SDS011;4068;42.158;24.732;2023-10-13T12:16:46;12.55;;;4.90;;
8050;SDS011;4068;42.158;24.732;2023-10-13T12:19:22;11.75;;;5.43;;
8050;SDS011;4068;42.158;24.732;2023-10-13T12:21:52;9.23;;;5.25;;
8050;SDS011;4068;42.158;24.732;2023-10-13T12:24:26;10.90;;;4.93;;
8050;SDS011;4068;42.158;24.732;2023-10-13T12:27:08;13.77;;;6.03;;
8050;SDS011;4068;42.158;24.732;2023-10-13T12:29:51;15.32;;;5.82;;
8050;SDS011;4068;42.158;24.732;2023-10-13T12:32:18;8.98;;;4.75;;
8050;SDS011;4068;42.158;24.732;2023-10-13T12:34:55;12.32;;;4.20;;
8050;SDS011;4068;42.158;24.732;2023-10-13T12:37:24;11.82;;;4.40;;
8050;SDS011;4068;42.158;24.732;2023-10-13T12:40:16;17.33;;;5.57;;
8050;SDS011;4068;42.158;24.732;2023-10-13T12:43:02;12.27;;;5.07;;
8050;SDS011;4068;42.158;24.732;2023-10-13T12:45:48;10.70;;;4.90;;
8050;SDS011;4068;42.158;24.732;2023-10-13T12:48:34;9.10;;;5.28;;
8050;SDS011;4068;42.158;24.732;2023-10-13T12:51:19;10.75;;;5.13;;
8050;SDS011;4068;42.158;24.732;2023-10-13T12:53:48;15.95;;;5.68;;
8050;SDS011;4068;42.158;24.732;2023-10-13T12:56:18;12.77;;;4.95;;
8050;SDS011;4068;42.158;24.732;2023-10-13T12:58:53;14.90;;;4.78;;
8050;SDS011;4068;42.158;24.732;2023-10-13T13:01:23;9.60;;;5.43;;
8050;SDS011;4068;42.158;24.732;2023-10-13T13:03:51;16.80;;;5.40;;
8050;SDS011;4068;42.158;24.732;2023-10-13T13:06:24;10.98;;;4.80;;
8050;SDS011;4068;42.158;24.732;2023-10-13T13:08:53;8.80;;;4.07;;
8050;SDS011;4068;42.158;24.732;2023-10-13T13:11:20;5.53;;;3.97;;
8050;SDS011;4068;42.158;24.732;2023-10-13T13:13:46;8.65;;;4.10;;
8050;SDS011;4068;42.158;24.732;2023-10-13T13:16:12;8.82;;;5.35;;
8050;SDS011;4068;42.158;24.732;2023-10-13T13:18:38;8.45;;;4.40;;
8050;SDS011;4068;42.158;24.732;2023-10-13T13:21:04;11.00;;;4.72;;
8050;SDS011;4068;42.158;24.732;2023-10-13T13:23:36;11.65;;;5.20;;
8050;SDS011;4068;42.158;24.732;2023-10-13T13:26:02;13.23;;;6.13;;
8050;SDS011;4068;42.158;24.732;2023-10-13T13:28:34;10.93;;;5.65;;
8050;SDS011;4068;42.158;24.732;2023-10-13T13:31:02;11.00;;;4.70;;
8050;SDS011;4068;42.158;24.732;2023-10-13T13:33:33;6.93;;;4.35;;
8050;SDS011;4068;42.158;24.732;2023-10-13T13:36:04;8.75;;;4.30;;
8050;SDS011;4068;42.158;24.732;2023-10-13T13:38:30;10.60;;;4.70;;
8050;SDS011;4068;42.158;24.732;2023-10-13T13:40:56;9.02;;;4.25;;
8050;SDS011;4068;42.158;24.732;2023-10-13T13:43:23;10.88;;;4.93;;
8050;SDS011;4068;42.158;24.732;2023-10-13T13:46:07;18.27;;;9.48;;
8050;SDS011;4068;42.158;24.732;2023-10-13T13:48:38;10.10;;;5.05;;
8050;SDS011;4068;42.158;24.732;2023-10-13T13:51:06;11.88;;;4.40;;
8050;SDS011;4068;42.158;24.732;2023-10-13T13:53:44;8.00;;;3.92;;
8050;SDS011;4068;42.158;24.732;2023-10-13T13:56:13;11.75;;;5.45;;
8050;SDS011;4068;42.158;24.732;2023-10-13T13:58:44;8.88;;;4.85;;
8050;SDS011;4068;42.158;24.732;2023-10-13T14:01:13;12.68;;;6.25;;
8050;SDS011;4068;42.158;24.732;2023-10-13T14:03:50;12.05;;;5.97;;
8050;SDS011;4068;42.158;24.732;2023-10-13T14:06:23;10.30;;;6.43;;
8050;SDS011;4068;42.158;24.732;2023-10-13T14:08:53;15.70;;;4.47;;
8050;SDS011;4068;42.158;24.732;2023-10-13T14:11:20;27.52;;;16.77;;
8050;SDS011;4068;42.158;24.732;2023-10-13T14:13:48;11.02;;;5.47;;
8050;SDS011;4068;42.158;24.732;2023-10-13T14:16:17;11.88;;;4.30;;
8050;SDS011;4068;42.158;24.732;2023-10-13T14:21:12;7.13;;;3.78;;
8050;SDS011;4068;42.158;24.732;2023-10-13T14:23:44;10.00;;;5.32;;
8050;SDS011;4068;42.158;24.732;2023-10-13T14:26:14;10.00;;;4.97;;
8050;SDS011;4068;42.158;24.732;2023-10-13T14:28:45;10.50;;;5.53;;
8050;SDS011;4068;42.158;24.732;2023-10-13T14:31:33;12.35;;;5.55;;
8050;SDS011;4068;42.158;24.732;2023-10-13T14:34:02;10.02;;;5.38;;
8050;SDS011;4068;42.158;24.732;2023-10-13T14:36:27;9.75;;;5.18;;
8050;SDS011;4068;42.158;24.732;2023-10-13T14:38:59;6.35;;;4.10;;
8050;SDS011;4068;42.158;24.732;2023-10-13T14:41:26;13.50;;;5.35;;
8050;SDS011;4068;42.158;24.732;2023-10-13T14:43:51;12.57;;;5.03;;
8050;SDS011;4068;42.158;24.732;2023-10-13T14:46:18;14.20;;;5.85;;
8050;SDS011;4068;42.158;24.732;2023-10-13T14:48:53;10.57;;;4.60;;
8050;SDS011;4068;42.158;24.732;2023-10-13T14:51:19;18.38;;;5.65;;
8050;SDS011;4068;42.158;24.732;2023-10-13T14:53:45;16.63;;;5.50;;
8050;SDS011;4068;42.158;24.732;2023-10-13T14:56:12;11.55;;;5.63;;
8050;SDS011;4068;42.158;24.732;2023-10-13T14:58:39;9.98;;;4.75;;
8050;SDS011;4068;42.158;24.732;2023-10-13T15:01:13;15.93;;;5.63;;
8050;SDS011;4068;42.158;24.732;2023-10-13T15:03:43;13.50;;;8.18;;
8050;SDS011;4068;42.158;24.732;2023-10-13T15:08:45;12.93;;;5.53;;
8050;SDS011;4068;42.158;24.732;2023-10-13T15:11:14;13.60;;;5.47;;
8050;SDS011;4068;42.158;24.732;2023-10-13T15:13:43;10.38;;;6.28;;
8050;SDS011;4068;42.158;24.732;2023-10-13T15:16:15;11.77;;;5.55;;
8050;SDS011;4068;42.158;24.732;2023-10-13T15:18:45;9.35;;;5.10;;
8050;SDS011;4068;42.158;24.732;2023-10-13T15:21:21;14.55;;;7.07;;
8050;SDS011;4068;42.158;24.732;2023-10-13T15:23:59;21.52;;;7.00;;
8050;SDS011;4068;42.158;24.732;2023-10-13T15:26:32;13.30;;;6.47;;
8050;SDS011;4068;42.158;24.732;2023-10-13T15:29:02;21.58;;;6.32;;
8050;SDS011;4068;42.158;24.732;2023-10-13T15:31:33;19.70;;;6.78;;
8050;SDS011;4068;42.158;24.732;2023-10-13T15:34:00;18.08;;;6.65;;
8050;SDS011;4068;42.158;24.732;2023-10-13T15:36:37;15.35;;;6.35;;
8050;SDS011;4068;42.158;24.732;2023-10-13T15:39:04;15.85;;;5.95;;
8050;SDS011;4068;42.158;24.732;2023-10-13T15:41:33;13.40;;;5.75;;
8050;SDS011;4068;42.158;24.732;2023-10-13T15:43:58;12.45;;;5.03;;
8050;SDS011;4068;42.158;24.732;2023-10-13T15:46:24;18.40;;;6.10;;